Time;durP1;ratioP1;P1;durP2;ratioP2;P2;SDS_P1;SDS_P2;PMS_P1;PMS_P2;Temp;Humidity;BMP_temperature;BMP_pressure;BME280_temperature;BME280_humidity;BME280_pressure;Samples;Min_cycle;Max_cycle;Signal;HPM_P1;HPM_P2
2022/12/26 16:30:37;;;;;;;13.68;4.45;;;5.90;99.90;;;;;;6201494;22;1254494;-70
2022/12/26 16:33:04;;;;;;;7.63;1.80;;;5.80;99.90;;;;;;6240410;23;20028;-68
2022/12/26 16:35:36;;;;;;;7.57;2.00;;;5.80;99.90;;;;;;6242040;22;20461;-70
2022/12/26 16:38:06;;;;;;;12.57;3.45;;;5.80;99.90;;;;;;6243481;22;20023;-69
2022/12/26 16:40:40;;;;;;;12.70;3.25;;;5.80;99.90;;;;;;6243149;22;20012;-68
2022/12/26 16:43:29;;;;;;;8.68;2.42;;;5.80;99.90;;;;;;6242814;22;20460;-68
2022/12/26 16:46:02;;;;;;;12.85;3.30;;;5.70;99.90;;;;;;6242777;22;20019;-68
2022/12/26 16:48:30;;;;;;;12.43;3.08;;;5.70;99.90;;;;;;6243426;22;20016;-68
2022/12/26 16:51:03;;;;;;;9.30;1.88;;;5.70;99.90;;;;;;6243325;22;20013;-68
2022/12/26 16:53:35;;;;;;;7.25;1.40;;;5.60;99.90;;;;;;6242450;23;20384;-68
2022/12/26 16:56:22;;;;;;;9.98;3.03;;;5.50;99.90;;;;;;6243265;23;20012;-68
2022/12/26 16:58:53;;;;;;;6.10;1.27;;;5.50;99.90;;;;;;6241256;23;20023;-68
2022/12/26 17:01:20;;;;;;;13.10;3.10;;;5.50;99.90;;;;;;6243338;22;20401;-69
2022/12/26 17:03:58;;;;;;;11.95;2.97;;;5.50;99.90;;;;;;6243412;22;20047;-69
2022/12/26 17:06:33;;;;;;;7.63;1.80;;;5.40;99.90;;;;;;6243665;22;20048;-68
2022/12/26 17:09:07;;;;;;;13.18;4.30;;;5.40;99.90;;;;;;6241656;23;20022;-68
2022/12/26 17:11:36;;;;;;;9.85;2.15;;;5.40;99.90;;;;;;6239489;23;20148;-69
2022/12/26 17:14:05;;;;;;;11.30;3.90;;;5.40;99.90;;;;;;6239205;23;20016;-69
2022/12/26 17:16:32;;;;;;;11.40;2.65;;;5.30;99.90;;;;;;6240799;23;20024;-69
2022/12/26 17:19:19;;;;;;;12.00;3.28;;;5.30;99.90;;;;;;6240820;23;20027;-69
2022/12/26 17:22:12;;;;;;;14.02;2.50;;;5.30;99.90;;;;;;6243260;22;20008;-69
2022/12/26 17:24:39;;;;;;;9.80;2.47;;;5.20;99.90;;;;;;6243501;23;20012;-69
2022/12/26 17:27:24;;;;;;;11.13;2.80;;;5.20;99.90;;;;;;6240983;22;20767;-70
2022/12/26 17:30:00;;;;;;;7.38;1.85;;;5.20;99.90;;;;;;6241346;22;20016;-71
2022/12/26 17:32:36;;;;;;;7.07;1.80;;;5.20;99.90;;;;;;6240953;23;20019;-71
2022/12/26 17:35:27;;;;;;;9.13;2.35;;;5.20;99.90;;;;;;6241622;22;20008;-70
2022/12/26 17:38:09;;;;;;;11.38;3.17;;;5.10;99.90;;;;;;6241374;23;20024;-71
2022/12/26 17:40:39;;;;;;;11.60;1.80;;;5.10;99.90;;;;;;6239896;23;20081;-71
2022/12/26 17:43:10;;;;;;;10.05;1.73;;;5.10;99.90;;;;;;6238580;23;20070;-71
2022/12/26 17:45:37;;;;;;;7.17;2.37;;;5.10;99.90;;;;;;6238158;23;20016;-71
2022/12/26 17:48:03;;;;;;;7.82;1.65;;;5.10;99.90;;;;;;6241664;22;20019;-71
2022/12/26 17:50:32;;;;;;;12.88;3.33;;;5.00;99.90;;;;;;6241216;23;20012;-72
2022/12/26 17:53:18;;;;;;;9.00;1.90;;;5.00;99.90;;;;;;6241290;22;20373;-71
2022/12/26 17:55:44;;;;;;;14.23;3.47;;;5.10;99.90;;;;;;6242406;23;20019;-70
2022/12/26 17:58:11;;;;;;;9.90;1.88;;;5.00;99.90;;;;;;6240463;23;20358;-71
2022/12/26 18:00:38;;;;;;;10.93;2.22;;;4.90;99.90;;;;;;6241997;22;20008;-71
2022/12/26 18:03:04;;;;;;;10.18;2.70;;;4.90;99.90;;;;;;6241580;22;20016;-70
2022/12/26 18:05:29;;;;;;;7.70;2.03;;;4.90;99.90;;;;;;6240031;23;20023;-71
2022/12/26 18:07:55;;;;;;;11.57;3.45;;;4.90;99.90;;;;;;6241740;22;20086;-70
2022/12/26 18:10:27;;;;;;;14.30;2.28;;;4.90;99.90;;;;;;6238654;23;20058;-71
2022/12/26 18:12:54;;;;;;;8.52;1.85;;;4.80;99.90;;;;;;6242444;22;20039;-71
2022/12/26 18:15:20;;;;;;;6.45;1.73;;;4.80;99.90;;;;;;6240604;22;20012;-70
2022/12/26 18:17:48;;;;;;;12.18;2.20;;;4.80;99.90;;;;;;6241835;22;20016;-70
2022/12/26 18:20:19;;;;;;;11.80;2.22;;;4.70;99.90;;;;;;6215621;23;20012;-71
2022/12/26 18:22:46;;;;;;;7.65;1.77;;;4.70;99.90;;;;;;6241378;22;20023;-71
2022/12/26 18:25:13;;;;;;;12.25;3.22;;;4.70;99.90;;;;;;6239461;22;20062;-71
2022/12/26 18:27:39;;;;;;;7.10;1.88;;;4.70;99.90;;;;;;6238797;23;20027;-70
2022/12/26 18:30:06;;;;;;;12.18;3.08;;;4.70;99.90;;;;;;6238639;23;20077;-70
2022/12/26 18:32:32;;;;;;;12.93;3.63;;;4.70;99.90;;;;;;6240707;23;20027;-70
2022/12/26 18:34:59;;;;;;;9.80;2.05;;;4.70;99.90;;;;;;6241460;22;20089;-69
2022/12/26 18:37:29;;;;;;;9.68;2.33;;;4.70;99.90;;;;;;6240424;23;20019;-70
2022/12/26 18:39:55;;;;;;;6.97;1.50;;;4.60;99.90;;;;;;6241601;22;20030;-70
2022/12/26 18:42:20;;;;;;;6.50;2.10;;;4.60;99.90;;;;;;6239673;23;20008;-70
2022/12/26 18:44:46;;;;;;;6.95;1.80;;;4.60;99.90;;;;;;6239984;23;20019;-70
2022/12/26 18:47:14;;;;;;;10.15;2.08;;;4.60;99.90;;;;;;6242370;23;20325;-70
2022/12/26 18:49:40;;;;;;;11.70;3.08;;;4.60;99.90;;;;;;6242866;22;20342;-70
2022/12/26 18:52:06;;;;;;;9.65;2.17;;;4.60;99.90;;;;;;6241763;23;20016;-70
2022/12/26 18:54:32;;;;;;;8.00;2.03;;;4.60;99.90;;;;;;6241107;22;20066;-70
2022/12/26 18:56:58;;;;;;;8.60;2.15;;;4.60;99.90;;;;;;6241790;23;20008;-70
2022/12/26 18:59:23;;;;;;;11.68;3.10;;;4.60;99.90;;;;;;6240078;23;20016;-70
2022/12/26 19:01:49;;;;;;;10.80;2.33;;;4.60;99.90;;;;;;6240107;23;20027;-70
2022/12/26 19:04:16;;;;;;;10.57;1.95;;;4.60;99.90;;;;;;6239352;23;20008;-70
2022/12/26 19:06:41;;;;;;;6.45;1.45;;;4.60;99.90;;;;;;6241816;22;20319;-70
2022/12/26 19:09:11;;;;;;;9.60;2.05;;;4.60;99.90;;;;;;6238747;23;20027;-70
2022/12/26 19:11:38;;;;;;;10.65;3.10;;;4.60;99.90;;;;;;6242365;22;20008;-70
2022/12/26 19:14:06;;;;;;;10.32;2.33;;;4.60;99.90;;;;;;6240703;22;20019;-71
2022/12/26 19:16:33;;;;;;;8.05;2.00;;;4.50;99.90;;;;;;6242079;22;20016;-70
2022/12/26 19:18:58;;;;;;;10.77;3.22;;;4.50;99.90;;;;;;6241836;22;20342;-70
2022/12/26 19:21:24;;;;;;;8.02;2.25;;;4.60;99.90;;;;;;6241918;23;20016;-70
2022/12/26 19:23:49;;;;;;;7.03;2.28;;;4.60;99.90;;;;;;6241393;23;20008;-70
2022/12/26 19:26:17;;;;;;;8.75;3.63;;;4.60;99.90;;;;;;6239256;23;20012;-70
2022/12/26 19:28:42;;;;;;;9.73;2.65;;;4.50;99.90;;;;;;6242224;22;20020;-70
2022/12/26 19:31:10;;;;;;;10.73;3.80;;;4.50;99.90;;;;;;6238952;23;20026;-70
2022/12/26 19:33:36;;;;;;;10.57;2.80;;;4.50;99.90;;;;;;6238464;23;20075;-70
2022/12/26 19:36:02;;;;;;;11.15;3.15;;;4.50;99.90;;;;;;6240832;22;20151;-70
2022/12/26 19:38:27;;;;;;;7.82;2.53;;;4.50;99.90;;;;;;6240562;23;20027;-70
2022/12/26 19:40:59;;;;;;;8.43;2.10;;;4.50;99.90;;;;;;6244242;23;20333;-70
2022/12/26 19:43:24;;;;;;;8.57;2.17;;;4.50;99.90;;;;;;6243764;22;20077;-70
2022/12/26 19:46:01;;;;;;;9.60;2.63;;;4.40;99.90;;;;;;6243437;23;20012;-70
2022/12/26 19:48:28;;;;;;;8.48;2.70;;;4.40;99.90;;;;;;6242974;22;20020;-70
2022/12/26 19:50:54;;;;;;;11.13;3.88;;;4.40;99.90;;;;;;6239295;23;20377;-70
2022/12/26 19:53:19;;;;;;;7.65;2.65;;;4.40;99.90;;;;;;6240272;23;20043;-70
2022/12/26 19:55:45;;;;;;;9.40;2.13;;;4.40;99.90;;;;;;6242728;23;20019;-70
2022/12/26 19:58:11;;;;;;;9.40;2.58;;;4.40;99.90;;;;;;6240819;23;20524;-70
2022/12/26 20:00:36;;;;;;;10.00;3.90;;;4.40;99.90;;;;;;6242570;23;20034;-70
2022/12/26 20:03:02;;;;;;;13.13;2.45;;;4.40;99.90;;;;;;6243334;23;20094;-70
2022/12/26 20:05:27;;;;;;;9.57;2.17;;;4.40;99.90;;;;;;6242463;23;20009;-70
2022/12/26 20:07:53;;;;;;;10.32;1.98;;;4.40;99.90;;;;;;6241579;23;20090;-70
2022/12/26 20:10:18;;;;;;;8.85;2.35;;;4.40;99.90;;;;;;6242959;23;20295;-70
2022/12/26 20:12:44;;;;;;;6.40;2.05;;;4.40;99.90;;;;;;6241264;23;20083;-70
2022/12/26 20:15:09;;;;;;;12.85;4.30;;;4.40;99.90;;;;;;6241709;23;20012;-70
2022/12/26 20:17:35;;;;;;;11.00;2.78;;;4.40;99.90;;;;;;6242929;23;20008;-71
2022/12/26 20:20:01;;;;;;;8.73;2.45;;;4.40;99.90;;;;;;6240921;23;20016;-70
2022/12/26 20:22:27;;;;;;;14.18;3.05;;;4.40;99.90;;;;;;6242756;22;20019;-70
2022/12/26 20:24:52;;;;;;;9.68;2.70;;;4.40;99.90;;;;;;6241270;23;20020;-71
2022/12/26 20:27:18;;;;;;;9.32;2.35;;;4.40;99.90;;;;;;6241027;23;20012;-70
2022/12/26 20:29:43;;;;;;;12.60;4.53;;;4.40;99.90;;;;;;6241543;23;20012;-70
2022/12/26 20:32:09;;;;;;;7.07;2.72;;;4.40;99.90;;;;;;6242881;23;20504;-70
2022/12/26 20:34:35;;;;;;;13.10;4.05;;;4.40;99.90;;;;;;6241599;23;20008;-70
2022/12/26 20:37:00;;;;;;;11.75;2.38;;;4.40;99.90;;;;;;6242981;23;20012;-70
2022/12/26 20:39:26;;;;;;;10.43;4.18;;;4.40;99.90;;;;;;6242402;23;20420;-70
2022/12/26 20:41:52;;;;;;;8.95;3.05;;;4.40;99.90;;;;;;6242534;23;20016;-70
2022/12/26 20:44:18;;;;;;;11.23;2.90;;;4.40;99.90;;;;;;6242158;22;20079;-70
2022/12/26 20:46:44;;;;;;;11.02;3.10;;;4.30;99.90;;;;;;6243234;22;20016;-71
2022/12/26 20:49:10;;;;;;;9.70;2.70;;;4.30;99.90;;;;;;6241955;22;20008;-71
2022/12/26 20:51:38;;;;;;;11.60;3.72;;;4.30;99.90;;;;;;6242721;23;20031;-70
2022/12/26 20:54:06;;;;;;;7.57;2.40;;;4.30;99.90;;;;;;6240649;23;20020;-70
2022/12/26 20:56:32;;;;;;;9.85;2.78;;;4.30;99.90;;;;;;6243390;22;20012;-70
2022/12/26 20:58:58;;;;;;;10.07;2.83;;;4.30;99.90;;;;;;6240411;23;20085;-71
2022/12/26 21:01:24;;;;;;;11.70;4.03;;;4.30;99.90;;;;;;6239809;23;20027;-71
2022/12/26 21:03:52;;;;;;;11.10;3.00;;;4.20;99.90;;;;;;6242240;22;20326;-71
2022/12/26 21:06:21;;;;;;;14.10;2.78;;;4.30;99.90;;;;;;6243221;22;20064;-71
2022/12/26 21:08:48;;;;;;;10.73;2.80;;;4.20;99.90;;;;;;6242824;22;20043;-70
2022/12/26 21:11:20;;;;;;;11.70;2.47;;;4.20;99.90;;;;;;6240767;23;20012;-70
2022/12/26 21:13:47;;;;;;;9.00;2.95;;;4.20;99.90;;;;;;6240716;23;20008;-71
2022/12/26 21:16:32;;;;;;;11.85;3.13;;;4.20;99.90;;;;;;6240361;23;20449;-71
2022/12/26 21:18:59;;;;;;;9.15;2.55;;;4.20;99.90;;;;;;6242092;22;20016;-70
2022/12/26 21:21:31;;;;;;;10.32;3.58;;;4.20;99.90;;;;;;6240765;23;20008;-71
2022/12/26 21:23:59;;;;;;;7.80;3.25;;;4.20;99.90;;;;;;6240668;23;20445;-71
2022/12/26 21:26:26;;;;;;;12.35;4.28;;;4.10;99.90;;;;;;6241121;23;20018;-69
2022/12/26 21:28:56;;;;;;;8.85;2.70;;;4.10;99.90;;;;;;6239618;23;20095;-69
2022/12/26 21:31:22;;;;;;;9.48;2.72;;;4.10;99.90;;;;;;6240736;23;20048;-69
2022/12/26 21:33:48;;;;;;;9.18;2.70;;;4.10;99.90;;;;;;6240299;23;20040;-69
2022/12/26 21:36:13;;;;;;;9.82;2.50;;;4.10;99.90;;;;;;6242351;22;20047;-69
2022/12/26 21:38:39;;;;;;;10.20;2.83;;;4.10;99.90;;;;;;6242373;23;20024;-69
2022/12/26 21:41:07;;;;;;;11.02;2.72;;;4.10;99.90;;;;;;6241395;23;20342;-70
2022/12/26 21:43:32;;;;;;;9.38;2.50;;;4.10;99.90;;;;;;6242287;22;20362;-70
2022/12/26 21:45:59;;;;;;;11.73;4.28;;;4.10;99.90;;;;;;6241905;23;20050;-69
2022/12/26 21:48:25;;;;;;;10.27;2.90;;;4.10;99.90;;;;;;6241413;22;20012;-70
2022/12/26 21:50:51;;;;;;;10.52;2.80;;;4.10;99.90;;;;;;6242295;22;20018;-70
2022/12/26 21:53:17;;;;;;;7.65;2.50;;;4.10;99.90;;;;;;6241931;22;20075;-70
2022/12/26 21:55:42;;;;;;;12.30;3.17;;;4.10;99.90;;;;;;6237514;23;20477;-70
2022/12/26 21:58:09;;;;;;;10.77;2.85;;;4.10;99.90;;;;;;6240502;23;20075;-69
2022/12/26 22:00:35;;;;;;;7.05;2.80;;;4.00;99.90;;;;;;6240432;22;20012;-71
2022/12/26 22:05:45;;;;;;;11.57;3.45;;;4.10;99.90;;;;;;6241105;23;20020;-69
2022/12/26 22:08:11;;;;;;;12.25;2.95;;;4.00;99.90;;;;;;6240554;23;20020;-69
2022/12/26 22:13:25;;;;;;;8.27;2.65;;;4.00;99.90;;;;;;6242629;23;20031;-69
2022/12/26 22:16:02;;;;;;;8.98;2.60;;;4.00;99.90;;;;;;6240490;23;20023;-69
2022/12/26 22:18:43;;;;;;;12.25;3.35;;;4.00;99.90;;;;;;6240621;23;20430;-69
2022/12/26 22:21:11;;;;;;;10.07;3.00;;;4.00;99.90;;;;;;6242476;22;20023;-69
2022/12/26 22:23:38;;;;;;;8.45;3.08;;;4.00;99.90;;;;;;6240174;23;20664;-69
2022/12/26 22:26:05;;;;;;;8.10;3.47;;;4.00;99.90;;;;;;6239381;23;20016;-69
2022/12/26 22:28:31;;;;;;;8.05;2.53;;;4.00;99.90;;;;;;6239139;22;20018;-69
2022/12/26 22:30:58;;;;;;;8.20;2.65;;;4.00;99.90;;;;;;6236072;23;20434;-69
2022/12/26 22:33:24;;;;;;;9.77;2.17;;;4.00;99.90;;;;;;6240777;23;20016;-69
2022/12/26 22:35:50;;;;;;;7.05;2.10;;;4.00;99.90;;;;;;6240406;22;20016;-69
2022/12/26 22:38:16;;;;;;;10.05;2.80;;;4.10;99.90;;;;;;6242144;22;20484;-69
2022/12/26 22:40:50;;;;;;;9.80;3.78;;;4.00;99.90;;;;;;6239977;23;20020;-69
2022/12/26 22:43:15;;;;;;;7.38;2.83;;;4.00;99.90;;;;;;6241676;22;20023;-69
2022/12/26 22:45:41;;;;;;;8.23;2.05;;;4.00;99.90;;;;;;6241330;23;20012;-69
2022/12/26 22:48:07;;;;;;;9.38;2.33;;;4.00;99.90;;;;;;6240786;23;20028;-69
2022/12/26 22:50:33;;;;;;;11.98;2.65;;;4.00;99.90;;;;;;6240034;23;20008;-69
2022/12/26 22:52:59;;;;;;;6.57;2.63;;;4.00;99.90;;;;;;6215105;23;20044;-69
2022/12/26 22:55:24;;;;;;;9.65;2.50;;;4.00;99.90;;;;;;6239933;23;20035;-69
2022/12/26 22:57:51;;;;;;;9.77;3.67;;;4.00;99.90;;;;;;6239495;23;20016;-69
2022/12/26 23:00:17;;;;;;;8.25;2.53;;;4.00;99.90;;;;;;6241859;22;20382;-69
2022/12/26 23:02:42;;;;;;;8.73;2.40;;;4.00;99.90;;;;;;6240844;23;20051;-69
2022/12/26 23:05:10;;;;;;;9.52;2.30;;;4.00;99.90;;;;;;6241907;23;20019;-69
2022/12/26 23:07:36;;;;;;;7.35;2.60;;;4.00;99.90;;;;;;6241502;22;20046;-70
2022/12/26 23:10:04;;;;;;;9.43;2.88;;;4.00;99.90;;;;;;6242227;22;20012;-69
2022/12/26 23:12:42;;;;;;;10.27;2.65;;;4.00;99.90;;;;;;6241992;22;20012;-69
2022/12/26 23:15:14;;;;;;;10.07;2.70;;;3.90;99.90;;;;;;6240407;23;20044;-69
2022/12/26 23:23:23;;;;;;;7.13;2.13;;;3.90;99.90;;;;;;6242071;23;20083;-70
2022/12/26 23:25:49;;;;;;;10.50;3.20;;;3.90;99.90;;;;;;6240782;23;20466;-69
2022/12/26 23:31:02;;;;;;;9.13;2.45;;;3.90;99.90;;;;;;6242866;23;20084;-69
2022/12/26 23:33:28;;;;;;;10.45;3.72;;;3.90;99.90;;;;;;6243974;22;20008;-69
2022/12/26 23:35:53;;;;;;;8.43;2.70;;;3.90;99.90;;;;;;6242434;22;20012;-70
2022/12/26 23:38:19;;;;;;;7.70;2.10;;;4.00;99.90;;;;;;6243676;23;20507;-69
2022/12/26 23:40:45;;;;;;;10.15;2.60;;;4.00;99.90;;;;;;6243487;23;20010;-68
2022/12/26 23:43:10;;;;;;;11.10;3.90;;;4.00;99.90;;;;;;6242968;23;20004;-70
2022/12/26 23:45:40;;;;;;;8.45;2.80;;;4.00;99.90;;;;;;6243494;23;20008;-69
2022/12/26 23:48:05;;;;;;;9.02;2.80;;;4.00;99.90;;;;;;6243288;22;20066;-70
2022/12/26 23:50:31;;;;;;;9.70;2.65;;;4.00;99.90;;;;;;6244213;23;20008;-69
2022/12/26 23:52:56;;;;;;;10.32;2.80;;;4.00;99.90;;;;;;6243484;23;20015;-69
2022/12/26 23:55:22;;;;;;;9.15;3.22;;;4.00;99.90;;;;;;6243427;22;20329;-69
2022/12/26 23:57:48;;;;;;;7.63;2.50;;;4.00;99.90;;;;;;6242360;23;20063;-69
